createdAt,value
2017-03-06T00:00:40.783Z,5.52
2017-03-06T00:01:41.306Z,5.55
2017-03-06T00:02:41.842Z,5.55
2017-03-06T00:03:42.376Z,5.56
2017-03-06T00:04:42.909Z,5.56
2017-03-06T00:05:43.463Z,5.56
2017-03-06T00:06:43.975Z,5.57
2017-03-06T00:07:44.507Z,5.60
2017-03-06T00:08:45.042Z,5.60
2017-03-06T00:09:45.577Z,5.60
2017-03-06T00:10:46.108Z,5.59
2017-03-06T00:11:46.640Z,5.57
2017-03-06T00:12:47.172Z,5.55
2017-03-06T00:13:47.703Z,5.55
2017-03-06T00:14:48.240Z,5.55
2017-03-06T00:15:48.767Z,5.52
2017-03-06T00:16:49.296Z,5.53
2017-03-06T00:17:49.830Z,5.52
2017-03-06T00:18:50.364Z,5.53
2017-03-06T00:19:50.895Z,5.52
2017-03-06T00:20:51.430Z,5.51
2017-03-06T00:21:51.967Z,5.52
2017-03-06T00:22:52.490Z,5.52
2017-03-06T00:23:53.026Z,5.52
2017-03-06T00:24:53.557Z,5.49
2017-03-06T00:25:54.105Z,5.49
2017-03-06T00:26:54.624Z,5.51
2017-03-06T00:27:55.156Z,5.51
2017-03-06T00:28:55.690Z,5.51
2017-03-06T00:29:56.216Z,5.49
2017-03-06T00:30:56.746Z,5.51
2017-03-06T00:31:57.285Z,5.49
2017-03-06T00:32:57.817Z,5.49
2017-03-06T00:33:58.348Z,5.52
2017-03-06T00:34:58.878Z,5.52
2017-03-06T00:35:59.417Z,5.51
2017-03-06T00:36:59.939Z,5.51
2017-03-06T00:38:00.467Z,5.49
2017-03-06T00:39:00.999Z,5.49
2017-03-06T00:40:01.533Z,5.51
2017-03-06T00:41:02.068Z,5.49
2017-03-06T00:42:02.600Z,5.52
2017-03-06T00:43:03.139Z,5.52
2017-03-06T00:44:03.667Z,5.52
2017-03-06T00:45:04.354Z,5.52
2017-03-06T00:46:04.740Z,5.52
2017-03-06T00:47:05.275Z,5.52
2017-03-06T00:48:05.801Z,5.52
2017-03-06T00:49:06.340Z,5.53
2017-03-06T00:50:06.864Z,5.52
2017-03-06T00:51:07.409Z,5.52
2017-03-06T00:52:07.939Z,5.49
2017-03-06T00:53:08.611Z,5.49
2017-03-06T00:54:09.000Z,5.48
2017-03-06T00:55:09.526Z,5.49
2017-03-06T00:56:10.208Z,5.49
2017-03-06T00:57:10.601Z,5.49
2017-03-06T00:58:11.122Z,5.49
2017-03-06T00:59:11.659Z,5.49
2017-03-06T01:00:12.191Z,5.51
2017-03-06T01:01:12.721Z,5.49
2017-03-06T01:02:13.255Z,5.48
2017-03-06T01:03:13.787Z,5.51
2017-03-06T01:04:14.319Z,5.48
2017-03-06T01:05:14.849Z,5.48
2017-03-06T01:06:15.384Z,5.48
2017-03-06T01:07:16.064Z,5.48
2017-03-06T01:08:16.448Z,5.46
2017-03-06T01:09:16.983Z,5.46
2017-03-06T01:10:17.524Z,5.45
2017-03-06T01:11:18.051Z,5.46
2017-03-06T01:12:18.728Z,5.46
2017-03-06T01:13:19.113Z,5.45
2017-03-06T01:14:19.644Z,5.45
2017-03-06T01:15:20.178Z,5.44
2017-03-06T01:16:20.717Z,5.45
2017-03-06T01:17:21.245Z,5.44
2017-03-06T01:18:21.773Z,5.45
2017-03-06T01:19:22.309Z,5.45
2017-03-06T01:20:22.849Z,5.42
2017-03-06T01:21:23.374Z,5.42
2017-03-06T01:22:23.903Z,5.42
2017-03-06T01:23:24.447Z,5.42
2017-03-06T01:24:24.977Z,5.44
2017-03-06T01:25:25.529Z,5.44
2017-03-06T01:26:26.199Z,5.45
2017-03-06T01:27:26.586Z,5.45
2017-03-06T01:28:27.116Z,5.44
2017-03-06T01:29:27.646Z,5.45
2017-03-06T01:30:28.182Z,5.46
2017-03-06T01:31:28.711Z,5.48
2017-03-06T01:32:29.244Z,5.45
2017-03-06T01:33:29.777Z,5.46
2017-03-06T01:34:30.302Z,5.46
2017-03-06T01:35:30.840Z,5.46
2017-03-06T01:36:31.371Z,5.46
2017-03-06T01:37:31.899Z,5.48
2017-03-06T01:38:32.433Z,5.48
2017-03-06T01:39:32.969Z,5.48
2017-03-06T01:40:33.649Z,5.48
2017-03-06T01:41:34.033Z,5.46
2017-03-06T01:42:34.563Z,5.46
2017-03-06T01:43:35.098Z,5.45
2017-03-06T01:44:35.642Z,5.46
2017-03-06T01:45:36.167Z,5.46
2017-03-06T01:46:36.699Z,5.48
2017-03-06T01:47:37.229Z,5.49
2017-03-06T01:48:37.763Z,5.52
2017-03-06T01:49:38.312Z,5.52
2017-03-06T01:50:38.829Z,5.51
2017-03-06T01:51:39.364Z,5.49
2017-03-06T01:52:39.893Z,5.48
2017-03-06T01:53:40.428Z,5.45
2017-03-06T01:54:40.954Z,5.42
2017-03-06T01:55:41.490Z,5.42
2017-03-06T01:56:42.027Z,5.42
2017-03-06T01:57:42.556Z,5.42
2017-03-06T01:58:43.088Z,5.41
2017-03-06T01:59:43.620Z,5.40
2017-03-06T02:00:44.156Z,5.38
2017-03-06T02:01:44.686Z,5.37
2017-03-06T02:02:45.217Z,5.37
2017-03-06T02:03:45.757Z,5.38
2017-03-06T02:04:46.297Z,5.38
2017-03-06T02:05:46.831Z,5.38
2017-03-06T02:06:47.513Z,5.40
2017-03-06T02:07:47.899Z,5.40
2017-03-06T02:08:48.426Z,5.40
2017-03-06T02:09:48.961Z,5.40
2017-03-06T02:10:49.644Z,5.40
2017-03-06T02:11:50.024Z,5.37
2017-03-06T02:12:50.556Z,5.37
2017-03-06T02:13:51.091Z,5.37
2017-03-06T02:14:51.622Z,5.38
2017-03-06T02:15:52.152Z,5.38
2017-03-06T02:16:52.677Z,5.37
2017-03-06T02:17:53.214Z,5.40
2017-03-06T02:18:53.743Z,5.40
2017-03-06T02:19:54.575Z,5.38
2017-03-06T02:20:54.804Z,5.38
2017-03-06T02:21:55.340Z,5.40
2017-03-06T02:22:55.868Z,5.40
2017-03-06T02:23:56.402Z,5.38
2017-03-06T02:24:56.932Z,5.38
2017-03-06T02:25:57.471Z,5.38
2017-03-06T02:26:57.999Z,5.37
2017-03-06T02:27:58.533Z,5.38
2017-03-06T02:28:59.068Z,5.38
2017-03-06T02:29:59.595Z,5.38
2017-03-06T02:31:00.129Z,5.38
2017-03-06T02:32:00.663Z,5.40
2017-03-06T02:33:01.192Z,5.42
2017-03-06T02:34:01.726Z,5.41
2017-03-06T02:35:02.253Z,5.38
2017-03-06T02:36:02.784Z,5.38
2017-03-06T02:37:03.320Z,5.40
2017-03-06T02:38:03.852Z,5.40
2017-03-06T02:39:04.384Z,5.35
2017-03-06T02:40:04.918Z,5.34
2017-03-06T02:41:05.452Z,5.30
2017-03-06T02:42:05.979Z,5.27
2017-03-06T02:43:06.507Z,5.27
2017-03-06T02:44:07.046Z,5.27
2017-03-06T02:45:07.578Z,5.26
2017-03-06T02:46:08.119Z,5.26
2017-03-06T02:47:08.664Z,5.29
2017-03-06T02:48:09.191Z,5.29
2017-03-06T02:49:09.727Z,5.27
2017-03-06T02:50:10.266Z,5.27
2017-03-06T02:51:10.791Z,5.27
2017-03-06T02:52:11.324Z,5.29
2017-03-06T02:53:11.864Z,5.26
2017-03-06T02:54:12.384Z,5.29
2017-03-06T02:55:12.918Z,5.29
2017-03-06T02:56:13.455Z,5.29
2017-03-06T02:57:14.131Z,5.29
2017-03-06T02:58:14.515Z,5.33
2017-03-06T02:59:15.041Z,5.33
2017-03-06T03:00:15.576Z,5.33
2017-03-06T03:01:16.107Z,5.35
2017-03-06T03:02:16.640Z,5.35
2017-03-06T03:03:17.171Z,5.34
2017-03-06T03:04:17.706Z,5.34
2017-03-06T03:05:18.236Z,5.34
2017-03-06T03:06:18.771Z,5.29
2017-03-06T03:07:19.605Z,5.29
2017-03-06T03:08:19.835Z,5.27
2017-03-06T03:09:20.369Z,5.29
2017-03-06T03:10:20.902Z,5.26
2017-03-06T03:11:21.428Z,5.26
2017-03-06T03:12:21.971Z,5.25
2017-03-06T03:13:22.498Z,5.23
2017-03-06T03:14:23.038Z,5.23
2017-03-06T03:15:23.556Z,5.26
2017-03-06T03:16:24.091Z,5.26
2017-03-06T03:17:24.620Z,5.26
2017-03-06T03:18:25.157Z,5.25
2017-03-06T03:19:25.682Z,5.25
2017-03-06T03:20:26.221Z,5.25
2017-03-06T03:21:26.738Z,5.21
2017-03-06T03:22:27.278Z,5.22
2017-03-06T03:23:27.805Z,5.19
2017-03-06T03:24:28.339Z,5.16
2017-03-06T03:25:28.883Z,5.16
2017-03-06T03:26:29.409Z,5.14
2017-03-06T03:27:29.948Z,5.11
2017-03-06T03:28:30.486Z,5.09
2017-03-06T03:29:31.017Z,5.09
2017-03-06T03:30:31.556Z,5.09
2017-03-06T03:31:32.095Z,5.07
2017-03-06T03:32:32.620Z,5.04
2017-03-06T03:33:33.153Z,5.03
2017-03-06T03:34:33.684Z,5.03
2017-03-06T03:35:34.214Z,5.00
2017-03-06T03:36:34.748Z,4.99
2017-03-06T03:37:35.281Z,4.96
2017-03-06T03:38:35.813Z,4.96
2017-03-06T03:39:36.355Z,4.95
2017-03-06T03:40:36.881Z,4.95
2017-03-06T03:41:37.407Z,4.93
2017-03-06T03:42:37.941Z,4.93
2017-03-06T03:43:38.474Z,4.92
2017-03-06T03:44:39.003Z,4.92
2017-03-06T03:45:39.549Z,4.95
2017-03-06T03:46:40.073Z,4.92
2017-03-06T03:47:40.602Z,4.92
2017-03-06T03:48:41.136Z,4.89
2017-03-06T03:49:41.667Z,4.89
2017-03-06T03:50:42.206Z,4.88
2017-03-06T03:51:42.735Z,4.85
2017-03-06T03:52:43.414Z,4.85
2017-03-06T03:53:43.952Z,4.85
2017-03-06T03:54:44.332Z,4.81
2017-03-06T03:55:44.865Z,4.81
2017-03-06T03:56:45.399Z,4.81
2017-03-06T03:57:45.926Z,4.80
2017-03-06T03:58:47.056Z,4.80
2017-03-06T03:59:46.985Z,4.80
2017-03-06T04:00:47.522Z,4.78
2017-03-06T04:01:48.048Z,4.77
2017-03-06T04:02:48.584Z,4.75
2017-03-06T04:03:49.110Z,4.74
2017-03-06T04:04:49.652Z,4.74
2017-03-06T04:05:50.179Z,4.71
2017-03-06T04:06:50.717Z,4.71
2017-03-06T04:07:51.250Z,4.70
2017-03-06T04:08:51.789Z,4.70
2017-03-06T04:09:52.335Z,4.67
2017-03-06T04:10:52.862Z,4.69
2017-03-06T04:11:53.544Z,4.67
2017-03-06T04:12:53.929Z,4.69
2017-03-06T04:13:54.455Z,4.67
2017-03-06T04:14:54.987Z,4.67
2017-03-06T04:15:55.516Z,4.67
2017-03-06T04:16:56.051Z,4.66
2017-03-06T04:17:56.592Z,4.64
2017-03-06T04:18:57.116Z,4.64
2017-03-06T04:19:57.645Z,4.64
2017-03-06T04:20:58.193Z,4.63
2017-03-06T04:21:58.713Z,4.62
2017-03-06T04:22:59.249Z,4.63
2017-03-06T04:23:59.785Z,4.62
2017-03-06T04:25:00.313Z,4.62
2017-03-06T04:26:00.845Z,4.62
2017-03-06T04:27:01.377Z,4.60
2017-03-06T04:28:01.908Z,4.62
2017-03-06T04:29:02.439Z,4.62
2017-03-06T04:30:02.970Z,4.60
2017-03-06T04:31:03.502Z,4.59
2017-03-06T04:32:04.033Z,4.59
2017-03-06T04:33:04.569Z,4.55
2017-03-06T04:34:05.098Z,4.55
2017-03-06T04:35:05.634Z,4.54
2017-03-06T04:36:06.161Z,4.52
2017-03-06T04:37:06.698Z,4.52
2017-03-06T04:38:07.229Z,4.51
2017-03-06T04:39:07.761Z,4.48
2017-03-06T04:40:08.441Z,4.48
2017-03-06T04:41:08.819Z,4.47
2017-03-06T04:42:09.387Z,4.44
2017-03-06T04:43:09.885Z,4.44
2017-03-06T04:44:10.417Z,4.43
2017-03-06T04:45:10.956Z,4.41
2017-03-06T04:46:11.491Z,4.40
2017-03-06T04:47:12.015Z,4.39
2017-03-06T04:48:12.547Z,4.36
2017-03-06T04:49:13.088Z,4.35
2017-03-06T04:50:13.620Z,4.32
2017-03-06T04:51:14.156Z,4.30
2017-03-06T04:52:14.686Z,4.29
2017-03-06T04:53:15.220Z,4.26
2017-03-06T04:54:15.902Z,4.24
2017-03-06T04:55:16.291Z,4.18
2017-03-06T04:56:16.815Z,4.17
2017-03-06T04:57:17.352Z,4.14
2017-03-06T04:58:17.887Z,4.14
2017-03-06T04:59:18.422Z,4.11
2017-03-06T05:00:18.953Z,4.10
2017-03-06T05:01:19.485Z,4.08
2017-03-06T05:02:20.015Z,4.07
2017-03-06T05:03:20.699Z,4.06
2017-03-06T05:04:21.087Z,4.03
2017-03-06T05:05:21.620Z,3.99
2017-03-06T05:06:22.145Z,3.96
2017-03-06T05:07:22.680Z,3.92
2017-03-06T05:08:23.211Z,3.92
2017-03-06T05:09:23.746Z,3.93
2017-03-06T05:10:24.274Z,3.95
2017-03-06T05:11:24.808Z,3.95
2017-03-06T05:12:25.341Z,3.95
2017-03-06T05:13:25.876Z,3.95
2017-03-06T05:14:26.430Z,3.97
2017-03-06T05:15:26.942Z,3.95
2017-03-06T05:16:27.469Z,3.93
2017-03-06T05:17:28.004Z,3.95
2017-03-06T05:18:28.533Z,3.92
2017-03-06T05:19:29.068Z,3.89
2017-03-06T05:20:29.601Z,3.89
2017-03-06T05:21:30.135Z,3.87
2017-03-06T05:22:30.675Z,3.89
2017-03-06T05:23:31.203Z,3.89
2017-03-06T05:24:31.744Z,3.85
2017-03-06T05:25:32.415Z,3.84
2017-03-06T05:26:32.797Z,3.85
2017-03-06T05:27:33.333Z,3.84
2017-03-06T05:28:33.868Z,3.83
2017-03-06T05:29:34.562Z,3.80
2017-03-06T05:30:34.939Z,3.80
2017-03-06T05:31:35.477Z,3.78
2017-03-06T05:32:36.009Z,3.78
2017-03-06T05:33:36.542Z,3.80
2017-03-06T05:34:37.078Z,3.80
2017-03-06T05:35:37.611Z,3.77
2017-03-06T05:36:38.292Z,3.76
2017-03-06T05:37:38.672Z,3.76
2017-03-06T05:38:39.213Z,3.74
2017-03-06T05:39:39.740Z,3.74
2017-03-06T05:40:40.270Z,3.73
2017-03-06T05:41:40.802Z,3.74
2017-03-06T05:42:41.334Z,3.74
2017-03-06T05:43:41.873Z,3.73
2017-03-06T05:44:42.399Z,3.72
2017-03-06T05:45:42.946Z,3.72
2017-03-06T05:46:43.474Z,3.72
2017-03-06T05:47:44.001Z,3.76
2017-03-06T05:48:44.535Z,3.77
2017-03-06T05:49:45.068Z,3.77
2017-03-06T05:50:45.613Z,3.81
2017-03-06T05:51:46.129Z,3.80
2017-03-06T05:52:46.666Z,3.81
2017-03-06T05:53:47.194Z,3.87
2017-03-06T05:54:47.734Z,3.89
2017-03-06T05:55:48.258Z,3.92
2017-03-06T05:56:48.802Z,3.95
2017-03-06T05:57:49.324Z,3.95
2017-03-06T05:58:49.852Z,3.95
2017-03-06T05:59:50.387Z,3.96
2017-03-06T06:00:50.919Z,3.96
2017-03-06T06:01:51.448Z,3.99
2017-03-06T06:02:51.979Z,4.01
2017-03-06T06:03:52.517Z,4.03
2017-03-06T06:04:53.047Z,4.07
2017-03-06T06:05:53.595Z,4.07
2017-03-06T06:06:54.264Z,4.06
2017-03-06T06:07:54.649Z,4.08
2017-03-06T06:08:55.185Z,4.07
2017-03-06T06:09:55.712Z,4.07
2017-03-06T06:10:56.264Z,4.04
2017-03-06T06:11:56.933Z,4.06
2017-03-06T06:12:57.323Z,4.03
2017-03-06T06:13:57.857Z,4.00
2017-03-06T06:14:58.391Z,4.00
2017-03-06T06:15:58.932Z,3.97
2017-03-06T06:16:59.459Z,3.96
2017-03-06T06:17:59.989Z,3.95
2017-03-06T06:19:00.529Z,3.95
2017-03-06T06:20:01.075Z,3.89
2017-03-06T06:21:01.612Z,3.92
2017-03-06T06:22:02.142Z,3.92
2017-03-06T06:23:02.674Z,3.92
2017-03-06T06:24:03.205Z,3.92
2017-03-06T06:25:03.734Z,3.90
2017-03-06T06:26:04.272Z,3.87
2017-03-06T06:27:04.795Z,3.89
2017-03-06T06:28:05.331Z,3.87
2017-03-06T06:29:05.856Z,3.87
2017-03-06T06:30:06.398Z,3.87
2017-03-06T06:31:06.923Z,3.87
2017-03-06T06:32:07.462Z,3.85
2017-03-06T06:33:07.990Z,3.89
2017-03-06T06:34:08.523Z,3.89
2017-03-06T06:35:09.054Z,3.85
2017-03-06T06:36:09.590Z,3.89
2017-03-06T06:37:10.120Z,3.90
2017-03-06T06:38:10.655Z,3.93
2017-03-06T06:39:11.190Z,3.92
2017-03-06T06:40:11.719Z,3.89
2017-03-06T06:41:12.249Z,3.87
2017-03-06T06:42:12.780Z,3.85
2017-03-06T06:43:13.308Z,3.85
2017-03-06T06:44:13.847Z,3.84
2017-03-06T06:45:14.379Z,3.84
2017-03-06T06:46:14.906Z,3.87
2017-03-06T06:47:15.444Z,3.85
2017-03-06T06:48:15.970Z,3.87
2017-03-06T06:49:16.650Z,3.90
2017-03-06T06:50:17.032Z,3.89
2017-03-06T06:51:17.572Z,3.87
2017-03-06T06:52:18.100Z,3.90
2017-03-06T06:53:18.640Z,3.90
2017-03-06T06:54:19.176Z,3.90
2017-03-06T06:55:19.716Z,3.84
2017-03-06T06:56:20.249Z,3.83
2017-03-06T06:57:20.793Z,3.85
2017-03-06T06:58:21.317Z,3.87
2017-03-06T06:59:21.859Z,3.89
2017-03-06T07:00:22.390Z,3.87
2017-03-06T07:01:23.069Z,3.84
2017-03-06T07:02:23.455Z,3.84
2017-03-06T07:03:23.984Z,3.84
2017-03-06T07:04:24.517Z,3.81
2017-03-06T07:05:25.049Z,3.78
2017-03-06T07:06:25.578Z,3.78
2017-03-06T07:07:26.108Z,3.76
2017-03-06T07:08:26.645Z,3.77
2017-03-06T07:09:27.170Z,3.80
2017-03-06T07:10:27.701Z,3.80
2017-03-06T07:11:28.247Z,3.81
2017-03-06T07:12:28.763Z,3.83
2017-03-06T07:13:29.298Z,3.84
2017-03-06T07:14:29.825Z,3.87
2017-03-06T07:15:30.355Z,3.89
2017-03-06T07:16:30.894Z,3.90
2017-03-06T07:17:31.420Z,3.92
2017-03-06T07:18:31.960Z,3.97
2017-03-06T07:19:32.493Z,4.00
2017-03-06T07:20:33.020Z,4.01
2017-03-06T07:21:33.558Z,4.04
2017-03-06T07:22:34.101Z,4.06
2017-03-06T07:23:34.638Z,4.07
2017-03-06T07:24:35.167Z,4.10
2017-03-06T07:25:35.843Z,4.11
2017-03-06T07:26:36.231Z,4.12
2017-03-06T07:27:36.769Z,4.14
2017-03-06T07:28:37.295Z,4.15
2017-03-06T07:29:37.819Z,4.17
2017-03-06T07:30:38.352Z,4.21
2017-03-06T07:31:39.033Z,4.19
2017-03-06T07:32:39.420Z,4.21
2017-03-06T07:33:39.958Z,4.22
2017-03-06T07:34:40.502Z,4.21
2017-03-06T07:35:41.028Z,4.22
2017-03-06T07:36:41.562Z,4.22
2017-03-06T07:37:42.099Z,4.24
2017-03-06T07:38:42.633Z,4.25
2017-03-06T07:39:43.173Z,4.28
2017-03-06T07:40:43.696Z,4.29
2017-03-06T07:41:44.224Z,4.28
2017-03-06T07:42:44.762Z,4.29
2017-03-06T07:43:45.294Z,4.30
2017-03-06T07:44:45.835Z,4.33
2017-03-06T07:45:46.363Z,4.36
2017-03-06T07:46:46.892Z,4.41
2017-03-06T07:47:47.426Z,4.41
2017-03-06T07:48:47.961Z,4.43
2017-03-06T07:49:48.525Z,4.46
2017-03-06T07:50:49.023Z,4.51
2017-03-06T07:51:49.555Z,4.54
2017-03-06T07:52:50.090Z,4.59
2017-03-06T07:53:50.618Z,4.62
2017-03-06T07:54:51.154Z,4.66
2017-03-06T07:55:51.687Z,4.70
2017-03-06T07:56:52.219Z,4.78
2017-03-06T07:57:52.750Z,4.85
2017-03-06T07:58:53.307Z,4.99
2017-03-06T07:59:53.824Z,5.09
2017-03-06T08:00:54.353Z,5.21
2017-03-06T08:01:55.031Z,5.33
2017-03-06T08:02:55.415Z,5.48
2017-03-06T08:03:55.943Z,5.57
2017-03-06T08:04:56.477Z,5.73
2017-03-06T08:05:57.018Z,5.86
2017-03-06T08:06:57.541Z,6.02
2017-03-06T08:07:58.100Z,6.16
2017-03-06T08:08:58.597Z,6.25
2017-03-06T08:09:59.134Z,6.34
2017-03-06T08:10:59.661Z,6.52
2017-03-06T08:12:00.201Z,6.68
2017-03-06T08:13:00.733Z,6.67
2017-03-06T08:14:01.257Z,6.77
2017-03-06T08:15:01.797Z,6.72
2017-03-06T08:16:02.333Z,6.77
2017-03-06T08:17:02.872Z,6.75
2017-03-06T08:18:03.410Z,6.68
2017-03-06T08:19:03.938Z,6.74
2017-03-06T08:20:04.466Z,6.72
2017-03-06T08:21:05.001Z,6.90
2017-03-06T08:22:05.529Z,7.12
2017-03-06T08:23:06.062Z,7.12
2017-03-06T08:24:06.600Z,7.12
2017-03-06T08:25:07.130Z,7.11
2017-03-06T08:26:07.694Z,6.97
2017-03-06T08:27:08.195Z,6.89
2017-03-06T08:28:08.873Z,6.68
2017-03-06T08:29:09.261Z,6.61
2017-03-06T08:30:09.789Z,6.67
2017-03-06T08:31:10.322Z,6.81
2017-03-06T08:32:10.856Z,6.86
2017-03-06T08:33:11.389Z,6.94
2017-03-06T08:34:11.922Z,6.87
2017-03-06T08:35:12.455Z,6.91
2017-03-06T08:36:12.989Z,6.98
2017-03-06T08:37:13.515Z,6.97
2017-03-06T08:38:14.047Z,7.07
2017-03-06T08:39:14.582Z,7.08
2017-03-06T08:40:15.261Z,7.01
2017-03-06T08:41:15.648Z,6.89
2017-03-06T08:42:16.182Z,6.86
2017-03-06T08:43:16.718Z,6.72
2017-03-06T08:44:17.256Z,6.72
2017-03-06T08:45:17.779Z,6.75
2017-03-06T08:46:18.311Z,6.71
2017-03-06T08:47:18.841Z,6.71
2017-03-06T08:48:19.376Z,6.66
2017-03-06T08:49:19.907Z,6.70
2017-03-06T08:50:20.434Z,6.64
2017-03-06T08:51:20.970Z,6.68
2017-03-06T08:52:21.503Z,6.67
2017-03-06T08:53:22.040Z,6.70
2017-03-06T08:54:22.569Z,6.74
2017-03-06T08:55:23.103Z,6.84
2017-03-06T08:56:23.668Z,6.91
2017-03-06T08:57:24.183Z,6.90
2017-03-06T08:58:24.716Z,6.89
2017-03-06T08:59:25.255Z,6.98
2017-03-06T09:00:25.781Z,7.07
2017-03-06T09:01:26.314Z,7.12
2017-03-06T09:02:26.845Z,7.15
2017-03-06T09:03:27.378Z,7.18
2017-03-06T09:04:27.909Z,7.18
2017-03-06T09:05:28.442Z,7.20
2017-03-06T09:06:28.969Z,7.18
2017-03-06T09:07:29.504Z,7.19
2017-03-06T09:08:30.032Z,7.22
2017-03-06T09:09:30.566Z,7.18
2017-03-06T09:10:31.095Z,7.24
2017-03-06T09:11:31.630Z,7.22
2017-03-06T09:12:32.157Z,7.22
2017-03-06T09:13:32.695Z,7.27
2017-03-06T09:14:33.224Z,7.27
2017-03-06T09:15:33.768Z,7.18
2017-03-06T09:16:34.290Z,7.22
2017-03-06T09:17:34.826Z,7.15
2017-03-06T09:18:35.362Z,7.15
2017-03-06T09:19:35.887Z,7.09
2017-03-06T09:20:36.442Z,7.09
2017-03-06T09:21:36.953Z,7.20
2017-03-06T09:22:37.481Z,7.20
2017-03-06T09:23:38.015Z,7.16
2017-03-06T09:25:39.081Z,7.34
2017-03-06T09:26:39.617Z,7.34
2017-03-06T09:27:40.146Z,7.33
2017-03-06T09:28:40.677Z,7.34
2017-03-06T09:29:41.207Z,7.35
2017-03-06T09:30:41.744Z,7.37
2017-03-06T09:31:42.277Z,7.44
2017-03-06T09:32:42.803Z,7.45
2017-03-06T09:33:43.340Z,7.48
2017-03-06T09:34:43.876Z,7.53
2017-03-06T09:35:44.415Z,7.63
2017-03-06T09:36:44.943Z,7.64
2017-03-06T09:37:45.483Z,7.64
2017-03-06T09:38:46.020Z,7.71
2017-03-06T09:39:46.557Z,7.83
2017-03-06T09:40:47.241Z,7.89
2017-03-06T09:41:47.636Z,7.95
2017-03-06T09:42:48.303Z,7.98
2017-03-06T09:43:48.685Z,8.11
2017-03-06T09:44:49.224Z,8.09
2017-03-06T09:45:49.749Z,8.08
2017-03-06T09:46:50.279Z,8.15
2017-03-06T09:47:50.810Z,8.27
2017-03-06T09:48:51.350Z,8.35
2017-03-06T09:49:51.874Z,8.37
2017-03-06T09:50:52.405Z,8.39
2017-03-06T09:51:52.938Z,8.35
2017-03-06T09:52:53.477Z,8.42
2017-03-06T09:53:54.003Z,8.50
2017-03-06T09:54:54.531Z,8.57
2017-03-06T09:55:55.066Z,8.53
2017-03-06T09:56:55.597Z,8.45
2017-03-06T09:57:56.125Z,8.39
2017-03-06T09:58:56.659Z,8.46
2017-03-06T09:59:57.192Z,8.43
2017-03-06T10:00:57.731Z,8.31
2017-03-06T10:01:58.261Z,8.16
2017-03-06T10:02:58.801Z,8.23
2017-03-06T10:03:59.321Z,8.04
2017-03-06T10:04:59.851Z,8.06
2017-03-06T10:06:00.385Z,8.06
2017-03-06T10:07:00.919Z,7.93
2017-03-06T10:08:01.447Z,7.79
2017-03-06T10:09:01.986Z,7.75
2017-03-06T10:10:02.509Z,7.81
2017-03-06T10:11:03.040Z,7.85
2017-03-06T10:12:03.575Z,7.86
2017-03-06T10:13:04.099Z,7.82
2017-03-06T10:14:04.636Z,7.83
2017-03-06T10:15:05.168Z,7.75
2017-03-06T10:16:05.843Z,7.76
2017-03-06T10:17:06.230Z,7.70
2017-03-06T10:18:06.765Z,7.67
2017-03-06T10:19:07.305Z,7.59
2017-03-06T10:20:07.844Z,7.60
2017-03-06T10:21:08.373Z,7.63
2017-03-06T10:22:08.908Z,7.67
2017-03-06T10:23:09.443Z,7.63
2017-03-06T10:24:10.279Z,7.63
2017-03-06T10:25:10.519Z,7.60
2017-03-06T10:26:11.047Z,7.60
2017-03-06T10:27:11.575Z,7.60
2017-03-06T10:28:12.252Z,7.64
2017-03-06T10:29:12.635Z,7.70
2017-03-06T10:30:13.171Z,7.72
2017-03-06T10:31:13.703Z,7.75
2017-03-06T10:32:14.236Z,7.74
2017-03-06T10:33:14.775Z,7.71
2017-03-06T10:34:15.298Z,7.76
2017-03-06T10:35:15.830Z,7.76
2017-03-06T10:36:16.360Z,7.82
2017-03-06T10:37:16.895Z,7.82
2017-03-06T10:38:17.425Z,7.79
2017-03-06T10:39:17.952Z,7.76
2017-03-06T10:40:18.491Z,7.82
2017-03-06T10:41:19.017Z,7.89
2017-03-06T10:42:19.554Z,7.93
2017-03-06T10:43:20.083Z,7.89
2017-03-06T10:44:20.617Z,7.89
2017-03-06T10:45:21.140Z,7.79
2017-03-06T10:46:21.678Z,7.81
2017-03-06T10:47:22.209Z,7.85
2017-03-06T10:48:22.743Z,7.78
2017-03-06T10:49:23.276Z,7.81
2017-03-06T10:50:23.807Z,7.85
2017-03-06T10:51:24.336Z,7.92
2017-03-06T10:52:24.867Z,7.97
2017-03-06T10:53:25.404Z,7.86
2017-03-06T10:54:25.931Z,7.79
2017-03-06T10:55:26.457Z,7.78
2017-03-06T10:56:26.996Z,7.76
2017-03-06T10:57:27.539Z,7.78
2017-03-06T10:58:28.059Z,7.79
2017-03-06T10:59:28.588Z,7.81
2017-03-06T11:00:29.126Z,7.83
2017-03-06T11:01:29.665Z,7.81
2017-03-06T11:02:30.200Z,7.81
2017-03-06T11:03:30.728Z,7.87
2017-03-06T11:04:31.265Z,8.02
2017-03-06T11:05:31.797Z,8.13
2017-03-06T11:06:32.326Z,8.22
2017-03-06T11:07:32.859Z,8.33
2017-03-06T11:08:33.391Z,8.38
2017-03-06T11:09:33.933Z,8.42
2017-03-06T11:10:34.459Z,8.35
2017-03-06T11:11:34.987Z,8.43
2017-03-06T11:12:35.517Z,8.49
2017-03-06T11:13:36.050Z,8.58
2017-03-06T11:14:36.582Z,8.56
2017-03-06T11:15:37.113Z,8.51
2017-03-06T11:16:37.646Z,8.58
2017-03-06T11:17:38.175Z,8.56
2017-03-06T11:18:38.719Z,8.51
2017-03-06T11:19:39.252Z,8.37
2017-03-06T11:20:39.774Z,8.34
2017-03-06T11:21:40.460Z,8.35
2017-03-06T11:22:40.864Z,8.45
2017-03-06T11:23:41.377Z,8.50
2017-03-06T11:24:41.910Z,8.43
2017-03-06T11:25:42.436Z,8.35
2017-03-06T11:26:42.970Z,8.37
2017-03-06T11:27:43.655Z,8.38
2017-03-06T11:28:44.040Z,8.47
2017-03-06T11:29:44.572Z,8.57
2017-03-06T11:30:45.113Z,8.67
2017-03-06T11:31:45.646Z,8.76
2017-03-06T11:32:46.167Z,8.79
2017-03-06T11:33:46.698Z,8.74
2017-03-06T11:34:47.228Z,8.68
2017-03-06T11:35:47.757Z,8.71
2017-03-06T11:36:48.288Z,8.67
2017-03-06T11:37:48.818Z,8.67
2017-03-06T11:38:49.352Z,8.65
2017-03-06T11:39:49.888Z,8.60
2017-03-06T11:40:50.424Z,8.57
2017-03-06T11:41:50.961Z,8.54
2017-03-06T11:42:51.498Z,8.53
2017-03-06T11:43:52.027Z,8.54
2017-03-06T11:44:52.558Z,8.54
2017-03-06T11:45:53.090Z,8.51
2017-03-06T11:46:53.633Z,8.53
2017-03-06T11:47:54.175Z,8.51
2017-03-06T11:48:54.697Z,8.53
2017-03-06T11:49:55.238Z,8.54
2017-03-06T11:50:55.763Z,8.47
2017-03-06T11:51:56.297Z,8.46
2017-03-06T11:52:56.821Z,8.50
2017-03-06T11:53:57.361Z,8.50
2017-03-06T11:54:57.884Z,8.45
2017-03-06T11:55:58.413Z,8.46
2017-03-06T11:56:58.945Z,8.51
2017-03-06T11:57:59.476Z,8.50
2017-03-06T11:59:00.014Z,8.47
2017-03-06T12:00:00.542Z,8.47
2017-03-06T12:01:01.079Z,8.49
2017-03-06T12:02:01.614Z,8.34
2017-03-06T12:03:02.144Z,8.31
2017-03-06T12:04:02.670Z,8.27
2017-03-06T12:05:03.209Z,8.24
2017-03-06T12:06:03.736Z,8.22
2017-03-06T12:07:04.272Z,8.19
2017-03-06T12:08:04.808Z,8.16
2017-03-06T12:09:05.333Z,8.22
2017-03-06T12:10:05.864Z,8.30
2017-03-06T12:11:06.401Z,8.37
2017-03-06T12:12:06.932Z,8.46
2017-03-06T12:13:07.473Z,8.54
2017-03-06T12:14:07.997Z,8.62
2017-03-06T12:15:08.534Z,8.71
2017-03-06T12:16:09.065Z,8.78
2017-03-06T12:17:09.598Z,8.80
2017-03-06T12:18:10.128Z,8.83
2017-03-06T12:19:10.664Z,8.80
2017-03-06T12:20:11.191Z,8.91
2017-03-06T12:21:11.725Z,8.96
2017-03-06T12:22:12.269Z,8.91
2017-03-06T12:23:12.793Z,8.94
2017-03-06T12:24:13.328Z,8.97
2017-03-06T12:25:13.860Z,9.00
2017-03-06T12:26:14.389Z,9.00
2017-03-06T12:27:14.923Z,8.96
2017-03-06T12:28:15.452Z,9.04
2017-03-06T12:29:15.992Z,9.13
2017-03-06T12:30:16.520Z,9.23
2017-03-06T12:31:17.201Z,9.40
2017-03-06T12:32:17.588Z,9.54
2017-03-06T12:33:18.116Z,9.65
2017-03-06T12:34:18.655Z,9.82
2017-03-06T12:35:19.180Z,9.95
2017-03-06T12:36:19.860Z,9.87
2017-03-06T12:37:20.241Z,9.94
2017-03-06T12:38:20.773Z,10.05
2017-03-06T12:39:21.299Z,10.08
2017-03-06T12:40:21.832Z,9.94
2017-03-06T12:41:22.367Z,9.97
2017-03-06T12:42:22.899Z,9.84
2017-03-06T12:43:23.434Z,9.89
2017-03-06T12:44:23.968Z,10.05
2017-03-06T12:45:24.497Z,10.24
2017-03-06T12:46:25.027Z,10.34
2017-03-06T12:47:25.572Z,10.38
2017-03-06T12:48:26.090Z,10.38
2017-03-06T12:49:26.623Z,10.32
2017-03-06T12:50:27.148Z,10.32
2017-03-06T12:51:27.686Z,10.09
2017-03-06T12:52:28.218Z,10.09
2017-03-06T12:53:28.752Z,10.02
2017-03-06T12:54:29.284Z,9.97
2017-03-06T12:55:29.816Z,9.94
2017-03-06T12:56:30.345Z,10.09
2017-03-06T12:57:30.878Z,10.16
2017-03-06T12:58:31.412Z,10.25
2017-03-06T12:59:31.957Z,10.20
2017-03-06T13:00:32.486Z,10.20
2017-03-06T13:01:33.015Z,10.38
2017-03-06T13:02:33.546Z,10.50
2017-03-06T13:03:34.082Z,10.54
2017-03-06T13:04:34.621Z,10.56
2017-03-06T13:05:35.156Z,10.60
2017-03-06T13:06:35.840Z,10.36
2017-03-06T13:07:36.218Z,10.04
2017-03-06T13:08:36.899Z,9.84
2017-03-06T13:09:37.278Z,9.78
2017-03-06T13:10:37.810Z,9.71
2017-03-06T13:11:38.347Z,9.86
2017-03-06T13:12:38.878Z,9.84
2017-03-06T13:13:39.407Z,9.69
2017-03-06T13:14:39.941Z,9.71
2017-03-06T13:15:40.482Z,9.68
2017-03-06T13:16:41.006Z,9.76
2017-03-06T13:17:41.536Z,9.73
2017-03-06T13:18:42.067Z,9.66
2017-03-06T13:19:42.604Z,9.66
2017-03-06T13:20:43.132Z,9.68
2017-03-06T13:21:43.663Z,9.71
2017-03-06T13:22:44.194Z,9.80
2017-03-06T13:23:44.728Z,9.83
2017-03-06T13:24:45.411Z,9.76
2017-03-06T13:25:45.802Z,9.68